Fallon, Nevada
Current Conditions -  °F | °C
As of 7:56 PM on Tuesday 21 Oct 2014 (Local Time) from KNFL Reporting Station
Few Clouds Few Clouds  
Wind Chill: 50°   Ceiling: Unl
Heat Index: 50°   Visibility: 10mi
Dew Point: 23°   Wind: 0mph
Humidity: 35%   Direction: NA
Pressure: 30.05"   Gusts: NA
Location:  39.47°N, 118.77°W
Report Text: KNFL 220256Z 00000KT 10SM FEW200 10/M05 A3005 RMK AO2 SLP145 T01001050 53006
Loading
Personal Weather Stations






























Interactive Weather Map
Tropical Storm Tracking
New forecast layout! Learn more

10-Day Weather Forecast

Advertisements
Track Severe Weather on mobile